Delta, CO

8:56 PM MDT on July 25, 2017 (GMT -0600)
Delta

Weather History for KAJZ - December, 2012

Change the Weather History Date:

Wednesday, December 12, 2012

  Actual Average (KMTJ) Record (KMTJ)
Temperature  
Mean Temperature 34 °F -  
Max Temperature 49 °F 36 °F 55 °F (2014)
Min Temperature 18 °F 15 °F -1 °F (2013)
Degree Days  
Heating Degree Days 32    
Moisture  
Dew Point 16 °F    
Average Humidity 52    
Maximum Humidity 74    
Minimum Humidity 30    
Precipitation  
Precipitation 0.00 in - - ()
Sea Level Pressure  
Sea Level Pressure 29.99 in    
Wind  
Wind Speed 6 mph (ENE)    
Max Wind Speed 15 mph    
Max Gust Speed -    
Visibility 10 miles    
Events      
Averages and records for this station are not official NWS values.
T = Trace of Precipitation, MM = Missing Value Source: NWS Daily Summary

Daily Weather History Graph

Daily Weather History Graph

Search for Another Location

Airport or City:

Trip Planner

Search our weather history database for the weather conditions in past years. The results will help you decide how hot, cold, wet, or windy it might be!

Date:

Astronomy

Dec. 12, 2012 Rise Set
Actual Time 7:21 AM MST 4:50 PM MST
Civil Twilight 6:51 AM MST 5:20 PM MST
Nautical Twilight 6:18 AM MST 5:54 PM MST
Astronomical Twilight 5:46 AM MST 6:26 PM MST
Moon 6:29 AM MST (12/12) 4:30 PM MST (12/12)
Length of Visible Light 10h 29m
Length of Day
9h 29m
Waning Crescent, 0% of the Moon is Illuminated
Dec 12
Waning Crescent
Dec 13
New
Dec 19
First Quarter
Dec 28
Full
Jan 4
Last Quarter

Hourly Weather History & Observations

Time (MST) Temp. Windchill Dew Point Humidity Pressure Visibility Wind Dir Wind Speed Gust Speed Precip Events Conditions
12:15 AM 21.6 °F 15.3 °F 13.1 °F 70% 30.07 in 10.0 mi East 4.6 mph - N/A   Clear
12:35 AM 20.8 °F 13.2 °F 13.1 °F 72% 30.07 in 10.0 mi ENE 5.8 mph - N/A   Clear
12:55 AM 23.0 °F 14.7 °F 13.5 °F 67% 30.05 in 10.0 mi ENE 6.9 mph - N/A   Clear
1:15 AM 22.8 °F 12.9 °F 13.1 °F 66% 30.05 in 10.0 mi ENE 9.2 mph - N/A   Clear
1:35 AM 21.6 °F 11.3 °F 12.7 °F 69% 30.05 in 10.0 mi ENE 9.2 mph - N/A   Clear
1:55 AM 21.4 °F 13.8 °F 12.4 °F 68% 30.05 in 10.0 mi ESE 5.8 mph - N/A   Clear
2:15 AM 21.7 °F 12.3 °F 12.7 °F 68% 30.05 in 10.0 mi ENE 8.1 mph - N/A   Clear
2:35 AM 23.0 °F 14.7 °F 12.9 °F 65% 30.04 in 10.0 mi East 6.9 mph - N/A   Clear
2:55 AM 22.8 °F 13.6 °F 13.1 °F 66% 30.04 in 10.0 mi East 8.1 mph - N/A   Clear
3:15 AM 22.8 °F 14.5 °F 13.1 °F 66% 30.02 in 10.0 mi ENE 6.9 mph - N/A   Clear
3:35 AM 22.1 °F 14.7 °F 12.7 °F 67% 30.02 in 10.0 mi ENE 5.8 mph - N/A   Clear
3:55 AM 22.1 °F 13.7 °F 12.6 °F 67% 30.01 in 10.0 mi ENE 6.9 mph - N/A   Clear
4:15 AM 21.2 °F 13.6 °F 12.4 °F 69% 30.01 in 10.0 mi NE 5.8 mph - N/A   Clear
4:35 AM 23.0 °F 15.8 °F 12.7 °F 65% 30.01 in 10.0 mi East 5.8 mph - N/A   Clear
5:15 AM 20.8 °F 14.4 °F 12.2 °F 69% 30.01 in 10.0 mi ENE 4.6 mph - N/A   Clear
5:35 AM 19.6 °F 14.5 °F 12.0 °F 72% 30.01 in 10.0 mi ENE 3.5 mph - N/A   Clear
5:55 AM 19.2 °F 9.3 °F 12.0 °F 74% 30.01 in 10.0 mi NNE 8.1 mph - N/A   Clear
6:15 AM 20.1 °F - 12.0 °F 71% 30.02 in 10.0 mi Calm Calm - N/A   Clear
6:35 AM 18.3 °F 10.2 °F 11.1 °F 73% 30.02 in 10.0 mi East 5.8 mph - N/A   Clear
6:55 AM 19.0 °F 9.0 °F 11.8 °F 74% 30.03 in 10.0 mi East 8.1 mph - N/A   Clear
7:15 AM 19.9 °F 12.1 °F 12.0 °F 71% 30.03 in 10.0 mi ENE 5.8 mph - N/A   Clear
7:35 AM 20.5 °F 10.8 °F 12.6 °F 71% 30.03 in 10.0 mi NE 8.1 mph - N/A   Clear
7:55 AM 22.1 °F 14.7 °F 13.1 °F 68% 30.03 in 10.0 mi ENE 5.8 mph - N/A   Clear
8:15 AM 22.3 °F 17.6 °F 12.9 °F 67% 30.03 in 10.0 mi East 3.5 mph - N/A   Clear
8:35 AM 22.1 °F 10.6 °F 12.9 °F 68% 30.01 in 10.0 mi NE 11.5 mph - N/A   Clear
8:55 AM 26.4 °F 20.9 °F 14.2 °F 60% 30.03 in 10.0 mi ESE 4.6 mph - N/A   Clear
9:15 AM 25.0 °F - 14.7 °F 65% 30.02 in 10.0 mi Calm Calm - N/A   Clear
9:35 AM 26.6 °F - 15.1 °F 62% 30.03 in 10.0 mi Calm Calm - N/A   Clear
9:55 AM 28.8 °F 21.7 °F 15.4 °F 58% 30.03 in 10.0 mi East 6.9 mph - N/A   Clear
10:15 AM 30.7 °F 24.9 °F 16.2 °F 55% 30.03 in 10.0 mi ENE 5.8 mph - N/A   Clear
10:35 AM 33.1 °F 30.0 °F 16.5 °F 51% 30.03 in 10.0 mi East 3.5 mph - N/A   Clear
10:55 AM 34.7 °F 31.8 °F 16.5 °F 48% 30.02 in 10.0 mi ESE 3.5 mph - N/A   Clear
11:15 AM 38.8 °F 33.2 °F 17.4 °F 42% 30.00 in 10.0 mi NNE 8.1 mph - N/A   Clear
11:35 AM 41.9 °F 39.0 °F 17.8 °F 38% 29.99 in 10.0 mi ENE 4.6 mph - N/A   Clear
11:55 AM 42.6 °F 40.9 °F 18.1 °F 37% 29.98 in 10.0 mi ESE 3.5 mph - N/A   Clear
12:15 PM 39.0 °F 35.7 °F 17.4 °F 42% 29.97 in 10.0 mi SW 4.6 mph - N/A   Clear
12:55 PM 40.8 °F 36.2 °F 17.4 °F 39% 29.96 in 10.0 mi SW 6.9 mph - N/A   Clear
1:15 PM 41.0 °F - 17.4 °F 39% 29.95 in 10.0 mi Calm Calm - N/A   Clear
1:35 PM 41.9 °F - 17.6 °F 38% 29.94 in 10.0 mi Calm Calm - N/A   Clear
1:55 PM 43.7 °F - 17.4 °F 35% 29.94 in 10.0 mi Calm Calm - N/A   Clear
2:15 PM 45.7 °F 44.4 °F 17.6 °F 33% 29.94 in 10.0 mi East 3.5 mph - N/A   Clear
2:35 PM 46.0 °F - 17.6 °F 32% 29.94 in 10.0 mi Calm Calm - N/A   Clear
2:55 PM 47.3 °F - 18.0 °F 31% 29.94 in 10.0 mi Calm Calm - N/A   Clear
3:15 PM 48.7 °F - 18.3 °F 30% 29.94 in 10.0 mi Calm Calm - N/A   Clear
3:35 PM 49.1 °F - 18.5 °F 30% 29.94 in 10.0 mi ENE 4.6 mph - N/A   Clear
3:55 PM 49.1 °F - 19.2 °F 31% 29.93 in 10.0 mi ENE 5.8 mph - N/A   Clear
4:15 PM 48.2 °F - 19.0 °F 32% 29.93 in 10.0 mi ENE 5.8 mph - N/A   Clear
4:35 PM 46.2 °F 42.2 °F 18.5 °F 33% 29.93 in 10.0 mi NNE 8.1 mph - N/A   Clear
4:55 PM 45.9 °F 41.2 °F 16.7 °F 31% 29.93 in 10.0 mi North 9.2 mph - N/A   Clear
5:55 PM 42.3 °F 38.6 °F 17.6 °F 37% 29.95 in 10.0 mi ENE 5.8 mph - N/A   Clear
6:15 PM 42.3 °F 37.3 °F 19.2 °F 40% 29.96 in 10.0 mi ENE 8.1 mph - N/A   Clear
6:35 PM 42.3 °F 37.3 °F 19.2 °F 40% 29.96 in 10.0 mi NE 8.1 mph - N/A   Clear
6:55 PM 40.6 °F 37.5 °F 18.9 °F 42% 29.96 in 10.0 mi NE 4.6 mph - N/A   Clear
7:15 PM 40.3 °F 35.5 °F 19.2 °F 43% 29.96 in 10.0 mi NNE 6.9 mph - N/A   Clear
7:35 PM 39.7 °F - 18.5 °F 42% 29.97 in 10.0 mi Calm Calm - N/A   Clear
7:55 PM 38.8 °F 32.1 °F 19.2 °F 45% 29.97 in 10.0 mi NNE 10.4 mph - N/A   Clear
8:15 PM 39.9 °F 35.8 °F 18.5 °F 42% 29.97 in 10.0 mi NE 5.8 mph - N/A   Clear
8:35 PM 40.5 °F 34.1 °F 17.6 °F 40% 29.97 in 10.0 mi NNE 10.4 mph - N/A   Clear
8:55 PM 41.0 °F 34.7 °F 18.1 °F 40% 29.97 in 10.0 mi ENE 10.4 mph - N/A   Clear
9:15 PM 40.6 °F 34.3 °F 20.1 °F 44% 29.97 in 10.0 mi ENE 10.4 mph - N/A   Clear
9:55 PM 39.0 °F 30.6 °F 21.6 °F 50% 29.98 in 10.0 mi ENE 15.0 mph - N/A   Clear
10:15 PM 39.6 °F 34.7 °F 20.5 °F 46% 29.98 in 10.0 mi ENE 6.9 mph - N/A   Clear
10:35 PM 38.8 °F 33.2 °F 19.4 °F 46% 29.99 in 10.0 mi North 8.1 mph - N/A   Clear
10:55 PM 39.7 °F 34.9 °F 18.7 °F 43% 29.98 in 10.0 mi NE 6.9 mph - N/A   Clear
11:15 PM 38.5 °F 32.1 °F 19.4 °F 46% 29.98 in 10.0 mi ENE 9.2 mph - N/A   Clear
11:35 PM 38.3 °F 32.5 °F 18.0 °F 44% 29.99 in 10.0 mi East 8.1 mph - N/A   Clear
11:55 PM 38.5 °F 30.7 °F 18.1 °F 44% 29.98 in 10.0 mi ENE 12.7 mph - N/A   Clear